Nearby METAR Reports

 

LJLJ - Ljubljana/Brnik, Slovenia
Distance from station: W 41km
Updated: 18/10/2018 07:30
Shallow fog, Mostly cloudy
Shallow fog, Mostly cloudy
 Wind from varies
Wind: varies 2 km/h
Temperature: 12°C
Dew Point: 11°C
Humidity: 94%
Barometer: 1018 hPa
Summary: Shallow Fog
Clouds: Mostly cloudy
Visibility: 10 km
Cloud details: Few Clouds 30 m
Mostly cloudy 3048 m
2018/10/18 05:30 LJLJ 180530Z VRB01KT 9999 MIFG FEW001 BKN100 12/11 Q1018 NOSIG
LJMB - Maribor, Slovenia
Distance from station: NE 63km
Updated: 18/10/2018 07:30
Mist, Partly cloudy
Mist, Partly cloudy
 Wind from SW
Wind: SW 4 km/h
Temperature: 12°C
Dew Point: 11°C
Humidity: 94%
Barometer: 1019 hPa
Summary: Mist
Clouds: Partly cloudy
Visibility: 5 km
2018/10/18 05:30 LJMB 180530Z 22002KT 5000 BR NSC 12/11 Q1019
 
LJPZ - Portoroz, Slovenia
Distance from station: SW 130km
Updated: 18/10/2018 07:30
Clear
Clear
 Wind from ESE
Wind: ESE 9 km/h
Temperature: 16°C
Dew Point: 13°C
Humidity: 83%
Barometer: 1015 hPa
Summary: Clear
Visibility: greater than 10 km
2018/10/18 05:30 LJPZ 180530Z 12005KT CAVOK 16/13 Q1015
LJCE - Cerklje, Slovenia
Distance from station: ESE 49km
Updated: 18/10/2018 07:30
Mist, Partly cloudy
Mist, Partly cloudy
 Wind from ESE
Wind: ESE 2 km/h
Temperature: 11°C
Dew Point: 11°C
Humidity: 100%
Barometer: 1018 hPa
Summary: Mist
Clouds: Partly cloudy
Visibility: 2 km
2018/10/18 05:30 LJCE 180530Z 12001KT 2000 BR NSC 11/11 Q1018 RMK YLO
 
LDZA - Zagreb/Pleso, Croatia
Distance from station: ESE 96km
Updated: 18/10/2018 07:30
Mist, Partly cloudy
Mist, Partly cloudy
 Wind from calm
Wind: Calm
Temperature: 11°C
Dew Point: 10°C
Humidity: 94%
Barometer: 1018 hPa
Summary: Mist
Clouds: Partly cloudy
Visibility: 3 km
2018/10/18 05:30 LDZA 180530Z 00000KT 2500 BR NSC 11/10 Q1018 NOSIG
LDRI - Rijeka/Omisalj, Croatia
Distance from station: SSW 109km
Updated: 18/10/2018 07:30
Partly cloudy
Partly cloudy
 Wind from NE
Wind: NE 11 km/h
Temperature: 19°C
Dew Point: 11°C
Humidity: 60%
Barometer: 1016 hPa
Clouds: Partly cloudy
Visibility: 10 km
Cloud details: Partly cloudy 1433 m
2018/10/18 05:30 LDRI 180530Z 05006KT 9999 SCT047 19/11 Q1016
 
LDPL - Pula, Croatia
Distance from station: SSW 164km
Updated: 18/10/2018 07:30
Clear
Clear
 Wind from ENE
Wind: ENE 2 km/h
Temperature: 14°C
Dew Point: 12°C
Humidity: 88%
Barometer: 1015 hPa
Summary: Clear
Visibility: greater than 10 km
2018/10/18 05:30 LDPL 180530Z 06001KT CAVOK 14/12 Q1015 NOSIG
LOWK - Klagenfurt(Civ/M, Austria
Distance from station: NW 76km
Updated: 18/10/2018 07:20
Mist, Mostly cloudy
Mist, Mostly cloudy
 Wind from varies
Wind: varies 2 km/h
Temperature: 11°C
Dew Point: 10°C
Humidity: 94%
Barometer: 1020 hPa
Summary: Mist
Clouds: Mostly cloudy
Visibility: 4 km
Cloud details: Few Clouds 30 m
Partly cloudy 91 m
Mostly cloudy 152 m
2018/10/18 05:20 LOWK 180520Z VRB01KT 4000 BR FEW001 SCT003 BKN005 11/10 Q1020 TEMPO 5000 BKN006
 
LOWG - Graz (mil/Civ), Austria
Distance from station: NNE 100km
Updated: 18/10/2018 07:20
Fog, Mostly cloudy
Fog, Mostly cloudy
 Wind from calm
Wind: Calm
Temperature: 11°C
Dew Point: 11°C
Humidity: 100%
Barometer: 1019 hPa
Summary: Fog
Clouds: Mostly cloudy
Visibility: 0 km
Cloud details: Mostly cloudy 61 m
2018/10/18 05:20 LOWG 180520Z 00000KT 0300 R17/0450D R35/0700N FG BKN002 11/11 Q1019 TEMPO 0600
LOWZ - Zell Am See, Austria
Distance from station: NW 211km
Updated: 31/12/2016 17:00
NOT Current
Clear
Clear
 Wind from varies
Wind: varies 4 km/h
Temperature: -4°C
Dew Point: -7°C
Humidity: 80%
Barometer: 1031 hPa
Clouds: Clear
2016/12/31 16:00 LOWZ 311600Z VRB02KT 50KM SKC M04/M07 Q1031
 
LOAN - Wr.neustadt East, Austria
Distance from station: NNE 212km
Updated: 17/10/2018 18:00
NOT Current
Mostly cloudy
Mostly cloudy
 Wind from calm
Wind: Calm
Clouds: Mostly cloudy
Visibility: 8 km
Cloud details: Partly cloudy 1829 m
Mostly cloudy 2438 m
2018/10/17 16:00 LOAN 171600Z 00000KT 8000 SCT060SC BKN080AC
LIPQ - Ronchi Legionari, Italy
Distance from station: SW 35km
Updated: 18/10/2018 07:20
Mostly cloudy
Mostly cloudy
 Wind from N
Wind: N 6 km/h
Temperature: 13°C
Dew Point: 12°C
Humidity: 94%
Barometer: 1015 hPa
Clouds: Mostly cloudy
Visibility: 8 km
Cloud details: Mostly cloudy 2743 m
2018/10/18 05:20 LIPQ 180520Z 35003KT 8000 BKN090 13/12 Q1015
 
LIVT - Trieste, Italy
Distance from station: WSW 109km
Updated: 18/10/2018 06:55
Clear
Clear
 Wind from NE
Wind: NE 15 km/h
Temperature: 19°C
Dew Point: 12°C
Humidity: 64%
Barometer: 1014 hPa
Summary: Clear
Visibility: greater than 10 km
2018/10/18 04:55 LIVT 180455Z 05008KT CAVOK 19/12 Q1014 RMK BKN BKN060 QUK / QUL / VIS MAR 15 KM VIS MIN 9999
LIVO - Tarvisio, Italy
Distance from station: NNW 49km
Updated: 17/10/2018 19:55
NOT Current
Overcast
Overcast
 Wind from calm
Wind: Calm
Temperature: 10°C
Dew Point: 9°C
Humidity: 94%
Barometer: 1020 hPa
Clouds: Overcast
Visibility: 10 km
Cloud details: Overcast 914 m
2018/10/17 17:55 LIVO 171755Z 00000KT 9999 OVC030 10/09 Q1020 RMK OVC VIS MIN 9999
 
LIPZ - Venezia/Tessera, Italy
Distance from station: WSW 217km
Updated: 18/10/2018 07:20
Clear
Clear
 Wind from NW
Wind: NW 6 km/h
Temperature: 15°C
Dew Point: 13°C
Humidity: 88%
Barometer: 1016 hPa
Summary: Clear
Visibility: greater than 10 km
2018/10/18 05:20 LIPZ 180520Z 31003KT 290V360 CAVOK 15/13 Q1016 NOSIG
LHSM - Balaton, Hungary
Distance from station: ENE 177km
Updated: 18/10/2018 07:15
Mist, Partly cloudy
Mist, Partly cloudy
 Wind from NNE
Wind: NNE 4 km/h
Temperature: 9°C
Dew Point: 9°C
Humidity: 100%
Barometer: 1018 hPa
Summary: Mist
Clouds: Partly cloudy
Visibility: 5 km
2018/10/18 05:15 LHSM 180515Z 03002KT 4500 BR NSC 09/09 Q1018